Time;durP1;ratioP1;P1;durP2;ratioP2;P2;SDS_P1;SDS_P2;PMS_P1;PMS_P2;Temp;Humidity;BMP_temperature;BMP_pressure;BME280_temperature;BME280_humidity;BME280_pressure;Samples;Min_cycle;Max_cycle;Signal;HPM_P1;HPM_P2
2021/04/14 00:01:31;;;;;;;10.87;5.27;;;5.50;99.90;;;;;;5092653;28;20301;-85
2021/04/14 00:03:58;;;;;;;9.07;5.40;;;5.50;99.90;;;;;;5093119;28;20263;-84
2021/04/14 00:06:25;;;;;;;10.30;6.20;;;5.40;99.90;;;;;;5092707;28;20291;-84
2021/04/14 00:08:52;;;;;;;11.27;6.33;;;5.40;99.90;;;;;;5092366;28;20200;-85
2021/04/14 00:11:21;;;;;;;12.20;5.87;;;5.40;99.90;;;;;;5093484;28;20196;-85
2021/04/14 00:13:47;;;;;;;7.77;5.23;;;5.30;99.90;;;;;;5092698;28;20270;-84
2021/04/14 00:16:16;;;;;;;8.90;5.80;;;5.20;99.90;;;;;;5092731;28;20634;-83
2021/04/14 00:18:43;;;;;;;12.07;6.13;;;5.10;99.90;;;;;;5093233;28;20635;-86
2021/04/14 00:21:10;;;;;;;13.20;6.07;;;5.00;99.90;;;;;;5092758;28;20210;-85
2021/04/14 00:23:38;;;;;;;10.17;5.90;;;5.00;99.90;;;;;;5089689;28;20201;-85
2021/04/14 00:26:06;;;;;;;10.17;5.63;;;5.00;99.90;;;;;;5092924;28;20192;-85
2021/04/14 00:28:33;;;;;;;10.37;5.67;;;5.00;99.90;;;;;;5092664;28;20229;-87
2021/04/14 00:30:59;;;;;;;8.60;5.77;;;5.00;99.90;;;;;;5092659;28;20200;-84
2021/04/14 00:33:26;;;;;;;10.53;5.97;;;5.00;99.90;;;;;;5093256;28;20192;-85
2021/04/14 00:35:53;;;;;;;11.17;6.13;;;5.00;99.90;;;;;;5092329;28;20204;-84
2021/04/14 00:38:21;;;;;;;9.50;6.10;;;4.90;99.90;;;;;;5092625;28;20197;-84
2021/04/14 00:40:53;;;;;;;13.40;6.87;;;4.70;99.90;;;;;;5092043;28;20676;-85
2021/04/14 00:43:23;;;;;;;11.27;6.17;;;4.70;99.90;;;;;;5092739;28;20269;-85
2021/04/14 00:45:50;;;;;;;9.40;6.13;;;4.50;99.90;;;;;;5092525;28;20283;-85
2021/04/14 00:48:17;;;;;;;10.47;6.63;;;4.30;99.90;;;;;;5092991;28;20198;-84
2021/04/14 00:50:43;;;;;;;12.60;6.90;;;4.30;99.90;;;;;;5092490;28;20252;-84
2021/04/14 00:53:10;;;;;;;13.30;7.00;;;4.60;99.90;;;;;;5093131;28;20198;-83
2021/04/14 00:55:39;;;;;;;13.00;7.60;;;4.70;99.90;;;;;;5092391;28;20615;-85
2021/04/14 00:58:08;;;;;;;12.70;7.27;;;4.90;99.90;;;;;;5087237;28;20225;-85
2021/04/14 01:00:36;;;;;;;13.27;8.10;;;4.90;99.90;;;;;;5095178;28;20200;-86
2021/04/14 01:03:04;;;;;;;14.73;7.43;;;4.80;99.90;;;;;;5095673;28;20650;-84
2021/04/14 01:05:32;;;;;;;12.30;6.90;;;4.70;99.90;;;;;;5094636;28;20228;-84
2021/04/14 01:07:58;;;;;;;14.97;7.57;;;4.60;99.90;;;;;;5096487;28;20224;-84
2021/04/14 01:10:25;;;;;;;10.87;6.87;;;4.50;99.90;;;;;;5095621;28;20287;-83
2021/04/14 01:12:52;;;;;;;13.87;6.97;;;4.40;99.90;;;;;;5092869;28;20214;-86
2021/04/14 01:15:23;;;;;;;13.23;7.17;;;4.20;99.90;;;;;;5096059;28;20593;-83
2021/04/14 01:17:50;;;;;;;13.27;6.97;;;4.20;99.90;;;;;;5096544;28;20229;-83
2021/04/14 01:20:17;;;;;;;11.57;7.33;;;4.20;99.90;;;;;;5096157;28;20299;-85
2021/04/14 01:22:45;;;;;;;15.20;7.40;;;4.20;99.90;;;;;;5096440;28;20233;-85
2021/04/14 01:25:17;;;;;;;12.93;7.73;;;4.10;99.90;;;;;;5095887;28;20349;-86
2021/04/14 01:27:44;;;;;;;14.60;7.67;;;4.10;99.90;;;;;;5096761;28;20207;-85
2021/04/14 01:30:14;;;;;;;14.17;7.63;;;4.30;99.90;;;;;;5095401;28;20647;-83
2021/04/14 01:32:40;;;;;;;14.07;7.67;;;4.30;99.90;;;;;;5085026;28;20235;-83
2021/04/14 01:35:09;;;;;;;14.50;6.93;;;4.20;99.90;;;;;;5096145;28;20228;-84
2021/04/14 01:37:35;;;;;;;12.70;7.70;;;4.00;99.90;;;;;;5095652;28;20197;-86
2021/04/14 01:40:03;;;;;;;14.63;8.07;;;3.80;99.90;;;;;;5096298;28;20200;-86
2021/04/14 01:42:29;;;;;;;13.30;7.40;;;3.80;99.90;;;;;;5096144;28;20207;-86
2021/04/14 01:44:56;;;;;;;13.27;8.43;;;3.70;99.90;;;;;;5095890;28;20540;-83
2021/04/14 01:47:22;;;;;;;11.97;8.30;;;3.60;99.90;;;;;;5095978;28;20267;-86
2021/04/14 01:49:48;;;;;;;15.43;8.17;;;3.60;99.90;;;;;;5095526;28;20299;-86
2021/04/14 01:52:15;;;;;;;17.47;8.03;;;3.60;99.90;;;;;;5094989;28;20280;-82
2021/04/14 01:54:41;;;;;;;15.83;7.63;;;3.60;99.90;;;;;;5095418;28;20262;-83
2021/04/14 01:57:09;;;;;;;18.33;9.57;;;3.80;99.90;;;;;;5095479;28;20203;-85
2021/04/14 01:59:35;;;;;;;18.80;9.27;;;3.80;99.90;;;;;;5095501;28;20634;-86
2021/04/14 02:02:03;;;;;;;14.80;9.07;;;3.70;99.90;;;;;;5094373;28;20296;-85
2021/04/14 02:04:29;;;;;;;16.37;8.30;;;3.70;99.90;;;;;;5095705;28;20253;-83
2021/04/14 02:06:56;;;;;;;16.73;9.33;;;3.70;99.90;;;;;;5095552;28;20216;-84
2021/04/14 02:09:22;;;;;;;15.70;9.10;;;3.70;99.90;;;;;;5094941;28;20193;-84
2021/04/14 02:11:49;;;;;;;18.43;8.90;;;3.60;99.90;;;;;;5094905;28;20284;-84
2021/04/14 02:14:16;;;;;;;12.73;8.50;;;3.70;99.90;;;;;;5095219;28;20239;-86
2021/04/14 02:16:43;;;;;;;16.67;8.60;;;3.70;99.90;;;;;;5095592;28;20228;-85
2021/04/14 02:19:09;;;;;;;14.03;9.07;;;3.70;99.90;;;;;;5095218;28;20224;-84
2021/04/14 02:21:36;;;;;;;13.30;8.70;;;3.80;99.90;;;;;;5094640;28;20220;-86
2021/04/14 02:24:02;;;;;;;16.37;8.57;;;3.70;99.90;;;;;;5095707;28;20228;-85
2021/04/14 02:26:29;;;;;;;15.77;9.10;;;3.60;99.90;;;;;;5094793;28;20198;-86
2021/04/14 02:28:56;;;;;;;15.87;9.97;;;3.70;99.90;;;;;;5094881;28;20235;-84
2021/04/14 02:31:30;;;;;;;15.30;9.60;;;3.70;99.90;;;;;;5094862;28;20190;-84
2021/04/14 02:33:57;;;;;;;14.80;9.23;;;3.50;99.90;;;;;;5094894;28;20215;-86
2021/04/14 02:36:24;;;;;;;17.60;10.40;;;3.50;99.90;;;;;;5094498;28;20718;-84
2021/04/14 02:38:51;;;;;;;13.07;9.30;;;3.60;99.90;;;;;;5094522;28;20289;-84
2021/04/14 02:41:17;;;;;;;17.20;10.00;;;3.60;99.90;;;;;;5095210;28;20278;-84
2021/04/14 02:43:44;;;;;;;19.00;10.50;;;3.50;99.90;;;;;;5094870;28;20571;-84
2021/04/14 02:46:10;;;;;;;17.80;9.60;;;3.50;99.90;;;;;;5095166;28;20209;-84
2021/04/14 02:48:37;;;;;;;18.97;10.50;;;3.50;99.90;;;;;;5094610;28;20282;-83
2021/04/14 02:51:06;;;;;;;20.53;10.53;;;3.50;99.90;;;;;;5094514;28;20279;-84
2021/04/14 02:53:32;;;;;;;16.30;9.77;;;3.50;99.90;;;;;;5094728;28;20201;-84
2021/04/14 02:55:59;;;;;;;17.50;9.70;;;3.50;99.90;;;;;;5094914;28;20196;-84
2021/04/14 02:58:25;;;;;;;20.17;10.13;;;3.60;99.90;;;;;;5094338;28;20682;-86
2021/04/14 03:00:52;;;;;;;17.17;8.97;;;3.70;99.90;;;;;;5094745;28;20208;-85
2021/04/14 03:03:19;;;;;;;15.83;9.27;;;3.70;99.90;;;;;;5093910;28;20612;-84
2021/04/14 03:05:46;;;;;;;13.13;9.10;;;3.70;99.90;;;;;;5093864;28;20195;-86
2021/04/14 03:08:12;;;;;;;17.57;9.93;;;3.70;99.90;;;;;;5093811;28;20225;-83
2021/04/14 03:10:39;;;;;;;15.67;9.30;;;3.80;99.90;;;;;;5093736;28;20302;-82
2021/04/14 03:13:06;;;;;;;19.00;9.20;;;3.80;99.90;;;;;;5093748;28;20206;-84
2021/04/14 03:15:35;;;;;;;14.80;9.33;;;3.80;99.90;;;;;;5093637;28;20638;-85
2021/04/14 03:18:02;;;;;;;17.80;9.50;;;3.90;99.90;;;;;;5093603;28;20298;-84
2021/04/14 03:20:28;;;;;;;16.03;9.10;;;3.80;99.90;;;;;;5093480;28;20251;-86
2021/04/14 03:22:56;;;;;;;14.70;8.93;;;3.80;99.90;;;;;;5093559;28;20203;-85
2021/04/14 03:25:25;;;;;;;14.20;9.13;;;3.80;99.90;;;;;;5093327;28;20616;-83
2021/04/14 03:27:51;;;;;;;16.10;9.63;;;3.80;99.90;;;;;;5094177;28;20208;-84
2021/04/14 03:30:19;;;;;;;15.90;9.17;;;3.80;99.90;;;;;;5094636;28;20201;-84
2021/04/14 03:32:45;;;;;;;15.17;9.73;;;3.90;99.90;;;;;;5094071;28;20220;-84
2021/04/14 03:35:13;;;;;;;18.00;10.67;;;4.00;99.90;;;;;;5093781;28;20231;-84
2021/04/14 03:37:40;;;;;;;23.23;10.47;;;3.80;99.90;;;;;;5093128;28;20268;-84
2021/04/14 03:40:09;;;;;;;17.20;10.27;;;3.70;99.90;;;;;;5093980;28;20207;-83
2021/04/14 03:42:35;;;;;;;20.67;9.60;;;3.70;99.90;;;;;;5093823;28;20589;-82
2021/04/14 03:45:10;;;;;;;20.77;9.77;;;3.70;99.90;;;;;;5093391;28;20351;-86
2021/04/14 03:47:36;;;;;;;19.50;10.37;;;3.80;99.90;;;;;;5092771;28;20211;-85
2021/04/14 03:50:04;;;;;;;14.83;8.90;;;3.90;99.90;;;;;;5093644;28;20669;-84
2021/04/14 03:52:30;;;;;;;18.10;9.93;;;4.00;99.90;;;;;;5093845;28;20296;-84
2021/04/14 03:54:57;;;;;;;14.73;9.00;;;4.20;99.90;;;;;;5093249;28;20305;-85
2021/04/14 03:57:24;;;;;;;16.63;9.43;;;4.10;99.90;;;;;;5093320;28;20741;-82
2021/04/14 03:59:50;;;;;;;16.23;9.87;;;4.10;99.90;;;;;;5093730;28;20196;-84
2021/04/14 04:02:17;;;;;;;20.87;9.73;;;4.00;99.90;;;;;;5092283;28;20249;-85
2021/04/14 04:04:44;;;;;;;19.47;9.23;;;3.90;99.90;;;;;;5093426;28;20201;-83
2021/04/14 04:07:10;;;;;;;16.33;8.87;;;3.90;99.90;;;;;;5093541;28;20349;-83
2021/04/14 04:09:36;;;;;;;17.17;8.63;;;3.80;99.90;;;;;;5093210;28;20202;-84
2021/04/14 04:12:07;;;;;;;15.20;9.23;;;3.70;99.90;;;;;;5093458;28;20200;-84
2021/04/14 04:14:35;;;;;;;16.17;8.63;;;3.70;99.90;;;;;;5093621;28;20257;-83
2021/04/14 04:17:02;;;;;;;14.20;8.60;;;3.60;99.90;;;;;;5092918;28;20516;-85
2021/04/14 04:19:28;;;;;;;16.40;8.30;;;3.60;99.90;;;;;;5094048;28;20634;-83
2021/04/14 04:21:55;;;;;;;18.10;8.50;;;3.50;99.90;;;;;;5093463;28;20191;-83
2021/04/14 04:24:21;;;;;;;16.87;8.50;;;3.40;99.90;;;;;;5093267;28;20235;-84
2021/04/14 04:26:48;;;;;;;21.97;8.53;;;3.40;99.90;;;;;;5093852;28;20284;-84
2021/04/14 04:29:14;;;;;;;16.00;8.50;;;3.50;99.90;;;;;;5093030;28;20192;-83
2021/04/14 04:31:41;;;;;;;14.23;7.70;;;3.40;99.90;;;;;;5092982;28;20213;-84
2021/04/14 04:34:08;;;;;;;20.60;7.60;;;3.50;99.90;;;;;;5092576;28;20227;-84
2021/04/14 04:36:34;;;;;;;14.90;6.97;;;3.60;99.90;;;;;;5097638;28;20269;-83
2021/04/14 04:39:00;;;;;;;18.13;7.47;;;3.60;99.90;;;;;;5097138;28;20209;-83
2021/04/14 04:41:27;;;;;;;14.57;7.07;;;3.70;99.90;;;;;;5096439;28;20196;-84
2021/04/14 04:43:53;;;;;;;14.07;7.17;;;3.90;99.90;;;;;;5096139;28;20208;-84
2021/04/14 04:46:19;;;;;;;13.70;7.37;;;4.00;99.90;;;;;;5096089;28;20216;-85
2021/04/14 04:48:47;;;;;;;15.93;7.27;;;4.00;99.90;;;;;;5090455;28;20229;-83
2021/04/14 04:51:13;;;;;;;16.73;6.50;;;4.00;99.90;;;;;;5095248;28;20291;-84
2021/04/14 04:53:40;;;;;;;14.40;6.30;;;3.90;99.90;;;;;;5097258;28;20288;-84
2021/04/14 04:56:06;;;;;;;10.43;6.70;;;3.90;99.90;;;;;;5097632;28;20203;-83
2021/04/14 04:58:33;;;;;;;12.77;6.60;;;3.80;99.90;;;;;;5096078;28;20573;-84
2021/04/14 05:00:59;;;;;;;15.10;6.60;;;3.80;99.90;;;;;;5096785;28;20222;-83
2021/04/14 05:03:28;;;;;;;13.03;6.27;;;3.80;99.90;;;;;;5096110;28;20483;-83
2021/04/14 05:05:57;;;;;;;15.77;6.63;;;3.90;99.90;;;;;;5096526;28;20283;-83
2021/04/14 05:08:23;;;;;;;15.43;6.30;;;3.90;99.90;;;;;;5086851;28;20679;-85
2021/04/14 05:10:50;;;;;;;10.30;6.07;;;3.90;99.90;;;;;;5095544;28;20630;-83
2021/04/14 05:13:16;;;;;;;17.03;6.83;;;4.10;99.90;;;;;;5095927;28;20211;-83
2021/04/14 05:15:43;;;;;;;14.57;6.77;;;4.00;99.90;;;;;;5096873;28;20266;-83
2021/04/14 05:18:10;;;;;;;12.93;6.17;;;4.00;99.90;;;;;;5096970;28;20228;-85
2021/04/14 05:20:37;;;;;;;14.00;5.90;;;4.00;99.90;;;;;;5096215;28;20242;-84
2021/04/14 05:23:05;;;;;;;9.77;6.17;;;4.00;99.90;;;;;;5096548;28;20245;-85
2021/04/14 05:25:34;;;;;;;10.73;5.97;;;4.10;99.90;;;;;;5096447;28;20287;-85
2021/04/14 05:28:04;;;;;;;11.23;6.17;;;4.30;99.90;;;;;;5096102;28;20587;-83
2021/04/14 05:30:30;;;;;;;12.50;6.23;;;4.30;99.90;;;;;;5096410;28;20589;-83
2021/04/14 05:32:57;;;;;;;10.43;6.10;;;4.40;99.90;;;;;;5096998;28;20300;-84
2021/04/14 05:35:24;;;;;;;13.43;6.80;;;4.20;99.90;;;;;;5096617;28;20257;-85
2021/04/14 05:37:50;;;;;;;14.13;6.43;;;4.30;99.90;;;;;;5096652;28;20282;-84
2021/04/14 05:40:18;;;;;;;13.77;6.53;;;4.40;99.90;;;;;;5096872;28;20295;-83
2021/04/14 05:42:46;;;;;;;14.43;6.30;;;4.50;99.90;;;;;;5089554;28;20204;-84
2021/04/14 05:45:16;;;;;;;12.87;5.97;;;4.60;99.90;;;;;;5095998;28;20249;-85
2021/04/14 05:47:43;;;;;;;12.03;5.67;;;4.70;99.90;;;;;;5095288;28;20193;-85
2021/04/14 05:50:13;;;;;;;15.90;5.87;;;4.90;99.90;;;;;;5095784;28;20200;-83
2021/04/14 05:52:40;;;;;;;12.77;6.17;;;5.00;99.90;;;;;;5095820;28;20630;-85
2021/04/14 05:55:08;;;;;;;13.77;5.57;;;5.30;99.90;;;;;;5094902;28;20255;-84
2021/04/14 05:57:35;;;;;;;12.40;5.73;;;5.50;99.90;;;;;;5095743;28;20211;-85
2021/04/14 06:00:02;;;;;;;11.77;5.10;;;5.70;99.90;;;;;;5095329;28;20367;-84
2021/04/14 06:02:28;;;;;;;11.77;6.00;;;5.90;99.90;;;;;;5094927;28;20223;-86
2021/04/14 06:04:54;;;;;;;20.93;5.73;;;6.30;99.90;;;;;;5095259;28;20291;-85
2021/04/14 06:07:21;;;;;;;10.77;5.57;;;6.50;99.90;;;;;;5095308;28;20211;-84
2021/04/14 06:09:48;;;;;;;19.80;5.50;;;6.90;99.90;;;;;;5094788;28;20254;-84
2021/04/14 06:12:14;;;;;;;11.67;6.20;;;7.20;99.90;;;;;;5094684;28;20223;-84
2021/04/14 06:14:42;;;;;;;10.40;4.70;;;7.40;99.90;;;;;;5074915;28;20308;-84
2021/04/14 06:17:08;;;;;;;12.30;5.27;;;7.70;99.90;;;;;;5079446;28;20204;-86
2021/04/14 06:19:35;;;;;;;12.23;6.10;;;7.90;99.90;;;;;;5095146;28;20613;-85
2021/04/14 06:22:01;;;;;;;18.60;5.50;;;8.00;99.90;;;;;;5094669;28;20205;-85
2021/04/14 06:24:28;;;;;;;10.73;4.97;;;8.10;99.90;;;;;;5094163;28;20208;-85
2021/04/14 06:26:57;;;;;;;9.77;5.37;;;8.40;99.90;;;;;;5094762;28;20231;-85
2021/04/14 06:29:23;;;;;;;15.53;4.63;;;8.60;99.90;;;;;;5094977;28;20268;-84
2021/04/14 06:31:52;;;;;;;13.47;4.93;;;8.80;99.90;;;;;;5094693;28;20228;-84
2021/04/14 06:34:22;;;;;;;13.80;4.67;;;9.10;99.90;;;;;;5094522;28;20227;-85
2021/04/14 06:36:50;;;;;;;15.77;5.07;;;9.20;99.90;;;;;;5094953;28;20221;-85
2021/04/14 06:39:18;;;;;;;12.37;5.13;;;9.40;99.90;;;;;;5094974;28;20211;-86
2021/04/14 06:42:02;;;;;;;13.27;4.67;;;9.50;99.90;;;;;;5095125;28;20226;-86
2021/04/14 06:44:47;;;;;;;10.57;4.77;;;9.60;99.90;;;;;;5095358;28;20203;-86
2021/04/14 06:47:21;;;;;;;9.83;4.80;;;9.60;99.90;;;;;;5093021;28;20579;-85
2021/04/14 06:49:54;;;;;;;13.87;5.07;;;9.70;99.90;;;;;;5094418;28;20246;-85
2021/04/14 06:52:27;;;;;;;14.37;4.70;;;9.80;99.90;;;;;;5094097;28;20684;-86
2021/04/14 06:55:00;;;;;;;17.80;4.90;;;9.80;99.90;;;;;;5094518;28;20225;-85
2021/04/14 06:57:29;;;;;;;13.40;4.40;;;9.60;99.90;;;;;;5093898;28;20211;-86
2021/04/14 07:00:00;;;;;;;13.97;4.80;;;9.60;99.90;;;;;;5094407;28;20280;-84
2021/04/14 07:02:31;;;;;;;16.10;4.50;;;9.60;99.90;;;;;;5093641;28;20196;-84
2021/04/14 07:05:03;;;;;;;12.87;4.53;;;9.80;99.90;;;;;;5094529;28;20281;-86
2021/04/14 07:07:32;;;;;;;14.17;5.03;;;10.10;99.90;;;;;;5094409;28;20194;-87
2021/04/14 07:10:06;;;;;;;13.93;4.50;;;10.30;99.90;;;;;;5093601;28;20240;-84
2021/04/14 07:12:32;;;;;;;19.23;5.17;;;10.30;99.90;;;;;;5092706;28;20205;-86
2021/04/14 07:15:01;;;;;;;17.40;4.40;;;10.50;99.90;;;;;;5091854;28;20220;-85
2021/04/14 07:17:43;;;;;;;13.73;4.80;;;10.60;99.90;;;;;;5086601;28;20225;-85
2021/04/14 07:20:20;;;;;;;15.17;4.30;;;10.80;99.90;;;;;;5094613;28;20704;-85
2021/04/14 07:23:01;;;;;;;19.50;5.13;;;10.90;99.90;;;;;;5092573;28;20743;-86
2021/04/14 07:25:36;;;;;;;12.20;4.20;;;11.20;99.90;;;;;;5091691;28;20211;-84
2021/04/14 07:28:17;;;;;;;15.57;4.40;;;11.30;99.90;;;;;;5094792;28;20212;-85
2021/04/14 07:30:58;;;;;;;13.90;4.60;;;11.30;99.90;;;;;;5092170;28;20237;-86
2021/04/14 07:33:38;;;;;;;14.57;4.90;;;11.50;99.90;;;;;;5094487;28;20667;-85
2021/04/14 07:36:13;;;;;;;18.23;5.53;;;11.70;99.90;;;;;;5093583;28;20259;-85
2021/04/14 07:38:57;;;;;;;12.77;5.90;;;11.80;99.90;;;;;;5091973;28;20197;-87
2021/04/14 07:41:33;;;;;;;13.43;6.77;;;11.60;99.90;;;;;;5086144;28;20201;-86
2021/04/14 07:44:05;;;;;;;10.33;6.70;;;11.10;99.90;;;;;;5093598;28;20547;-86
2021/04/14 07:46:33;;;;;;;13.83;6.70;;;10.70;99.90;;;;;;5093303;28;20207;-86
2021/04/14 07:49:02;;;;;;;15.60;6.60;;;10.20;99.90;;;;;;5093648;28;20288;-86
2021/04/14 07:51:29;;;;;;;16.87;7.43;;;10.30;99.90;;;;;;5092531;28;20697;-86
2021/04/14 07:53:59;;;;;;;16.73;7.67;;;10.00;99.90;;;;;;5091965;28;20685;-85
2021/04/14 07:56:26;;;;;;;14.17;6.90;;;9.90;99.90;;;;;;5087587;28;20565;-85
2021/04/14 07:59:04;;;;;;;12.50;5.80;;;10.10;99.90;;;;;;5093334;28;20197;-85
2021/04/14 08:01:31;;;;;;;10.37;6.10;;;9.80;99.90;;;;;;5093055;28;20626;-85
2021/04/14 08:04:11;;;;;;;10.10;5.50;;;9.80;99.90;;;;;;5091963;28;20255;-86
2021/04/14 08:06:39;;;;;;;12.00;5.47;;;9.70;99.90;;;;;;5089239;28;20230;-85
2021/04/14 08:09:11;;;;;;;11.37;5.17;;;9.70;99.90;;;;;;5085351;28;20231;-85
2021/04/14 08:11:38;;;;;;;10.47;4.80;;;9.90;99.90;;;;;;5090131;28;20203;-86
2021/04/14 08:14:14;;;;;;;10.43;4.60;;;10.00;99.90;;;;;;5092366;28;20293;-86
2021/04/14 08:16:45;;;;;;;7.03;3.37;;;10.00;99.90;;;;;;5092744;28;20196;-84
2021/04/14 08:19:21;;;;;;;6.10;2.60;;;10.20;99.90;;;;;;5090584;28;20256;-86
2021/04/14 08:21:57;;;;;;;9.77;2.97;;;10.30;99.90;;;;;;5092271;28;20611;-86
2021/04/14 08:24:31;;;;;;;4.50;2.60;;;10.40;99.90;;;;;;5102221;28;20207;-84
2021/04/14 08:27:02;;;;;;;6.90;3.80;;;10.40;99.90;;;;;;5107757;28;20200;-87
2021/04/14 08:29:31;;;;;;;33.13;4.90;;;10.40;99.90;;;;;;5092540;28;20211;-86
2021/04/14 08:31:58;;;;;;;20.23;4.70;;;10.40;99.90;;;;;;5092149;28;20197;-85
2021/04/14 08:34:29;;;;;;;6.03;3.53;;;10.50;99.90;;;;;;5092083;28;20259;-86
2021/04/14 08:37:03;;;;;;;10.30;3.93;;;10.80;99.90;;;;;;5091115;28;20189;-86
2021/04/14 08:39:39;;;;;;;14.73;4.10;;;12.00;99.90;;;;;;5091531;28;20292;-86
2021/04/14 08:42:13;;;;;;;8.50;3.80;;;14.40;99.90;;;;;;5085764;28;20201;-86
2021/04/14 08:44:44;;;;;;;8.00;3.90;;;17.10;99.90;;;;;;5092396;28;20620;-88
2021/04/14 08:47:18;;;;;;;7.13;3.80;;;18.10;99.90;;;;;;5093287;28;20203;-84
2021/04/14 08:50:02;;;;;;;8.70;3.97;;;19.00;99.90;;;;;;5092780;28;20199;-85
2021/04/14 08:52:32;;;;;;;6.97;4.17;;;20.50;99.90;;;;;;5092629;28;20207;-85
2021/04/14 08:55:03;;;;;;;10.73;4.27;;;22.20;99.90;;;;;;5092664;28;20230;-86
2021/04/14 08:57:33;;;;;;;7.20;4.47;;;23.40;99.30;;;;;;5092383;28;20195;-85
2021/04/14 09:00:07;;;;;;;5.93;4.93;;;23.90;95.40;;;;;;5092475;28;20203;-86
2021/04/14 09:02:37;;;;;;;9.23;4.77;;;24.40;93.40;;;;;;5092162;28;20281;-85
2021/04/14 09:05:20;;;;;;;6.70;4.53;;;24.80;92.50;;;;;;5091898;28;20251;-84
2021/04/14 09:10:52;;;;;;;5.60;4.43;;;23.90;90.30;;;;;;5090361;28;20203;-84
2021/04/14 09:13:38;;;;;;;6.80;4.73;;;21.20;90.00;;;;;;5092495;28;20207;-85
2021/04/14 09:16:36;;;;;;;7.37;4.40;;;21.50;91.00;;;;;;5092819;28;20214;-83
2021/04/14 09:19:29;;;;;;;6.57;4.23;;;21.60;91.10;;;;;;5090614;28;20203;-85
2021/04/14 09:22:26;;;;;;;6.60;4.80;;;21.30;91.90;;;;;;5093492;28;20195;-85
2021/04/14 09:24:58;;;;;;;8.97;5.17;;;21.60;90.80;;;;;;5095441;28;20665;-85
2021/04/14 09:27:56;;;;;;;5.77;4.57;;;22.00;90.50;;;;;;5095747;28;20560;-84
2021/04/14 09:33:29;;;;;;;5.20;4.10;;;21.50;90.60;;;;;;5089613;28;20549;-84
2021/04/14 09:40:10;;;;;;;5.13;3.97;;;18.50;91.50;;;;;;5094529;28;20562;-85
2021/04/14 09:42:48;;;;;;;9.03;5.10;;;17.10;93.20;;;;;;5094902;28;20202;-86
2021/04/14 09:45:33;;;;;;;8.77;5.20;;;16.40;95.30;;;;;;5096087;28;20198;-84
2021/04/14 09:48:20;;;;;;;7.97;4.53;;;15.60;96.30;;;;;;5095482;28;20203;-86
2021/04/14 09:50:53;;;;;;;7.93;4.80;;;14.90;97.50;;;;;;5096209;28;20644;-84
2021/04/14 09:53:32;;;;;;;9.40;4.87;;;14.40;98.10;;;;;;5076056;28;20202;-84
2021/04/14 09:56:21;;;;;;;6.63;4.00;;;13.90;97.60;;;;;;5091961;28;20229;-86
2021/04/14 09:58:58;;;;;;;11.67;5.17;;;13.70;97.50;;;;;;5095273;28;20199;-86
2021/04/14 10:01:34;;;;;;;6.67;4.70;;;13.00;98.20;;;;;;5095372;28;20205;-85
2021/04/14 10:04:02;;;;;;;8.77;4.63;;;13.10;99.50;;;;;;5094885;28;20320;-84
2021/04/14 10:06:29;;;;;;;11.07;4.97;;;13.40;99.70;;;;;;5087541;28;20206;-83
2021/04/14 10:08:58;;;;;;;9.47;5.03;;;13.70;99.90;;;;;;5079387;28;20195;-83
2021/04/14 10:11:29;;;;;;;8.00;4.43;;;13.90;99.30;;;;;;5088551;28;20223;-81
2021/04/14 10:13:56;;;;;;;8.07;5.20;;;13.90;98.30;;;;;;5087566;28;20195;-80
2021/04/14 10:17:06;;;;;;;9.03;4.77;;;14.10;99.20;;;;;;5082056;28;20222;-84
2021/04/14 10:19:33;;;;;;;18.93;12.07;;;14.40;99.10;;;;;;5087690;28;20290;-84
2021/04/14 10:22:06;;;;;;;9.90;4.80;;;14.70;98.20;;;;;;5090562;28;20526;-81
2021/04/14 10:24:34;;;;;;;6.33;4.93;;;15.00;98.60;;;;;;5081402;28;20537;-79
2021/04/14 10:27:02;;;;;;;13.93;5.30;;;15.10;97.40;;;;;;5082925;28;20286;-80
2021/04/14 10:29:41;;;;;;;8.83;5.03;;;15.00;97.30;;;;;;5092246;28;20209;-81
2021/04/14 10:32:14;;;;;;;7.20;5.07;;;14.40;97.60;;;;;;5088717;28;20190;-81
2021/04/14 10:34:40;;;;;;;7.23;4.73;;;14.20;97.90;;;;;;5093043;28;20215;-84
2021/04/14 10:37:15;;;;;;;7.70;4.80;;;13.60;98.20;;;;;;5091261;28;20285;-79
2021/04/14 10:39:42;;;;;;;6.43;4.60;;;13.40;99.10;;;;;;5087508;28;20305;-79
2021/04/14 10:42:16;;;;;;;7.40;4.83;;;13.60;99.00;;;;;;5081702;28;20205;-78
2021/04/14 10:44:43;;;;;;;6.17;4.60;;;13.30;99.50;;;;;;5083900;28;20288;-82
2021/04/14 10:47:17;;;;;;;9.80;4.80;;;13.50;98.70;;;;;;5086139;28;20206;-80
2021/04/14 10:49:44;;;;;;;8.20;4.97;;;13.90;98.90;;;;;;5082208;28;20577;-84
2021/04/14 10:52:18;;;;;;;12.33;5.30;;;13.90;98.60;;;;;;5091522;28;20301;-83
2021/04/14 10:54:48;;;;;;;8.67;5.40;;;13.40;99.00;;;;;;5093270;28;20232;-80
2021/04/14 10:57:34;;;;;;;6.40;4.87;;;13.20;99.70;;;;;;5082856;28;20650;-80
2021/04/14 11:00:04;;;;;;;7.50;5.20;;;13.60;99.70;;;;;;5093915;28;20247;-83
2021/04/14 11:02:31;;;;;;;10.53;6.00;;;13.50;99.70;;;;;;5089596;28;20213;-81
2021/04/14 11:04:57;;;;;;;9.03;4.67;;;13.40;99.90;;;;;;5085570;28;20671;-81
2021/04/14 11:07:25;;;;;;;7.93;4.80;;;13.80;99.90;;;;;;5085001;28;20219;-78
2021/04/14 11:09:54;;;;;;;7.70;5.23;;;14.10;98.60;;;;;;5091129;28;20187;-79
2021/04/14 11:12:23;;;;;;;7.53;5.00;;;14.50;98.60;;;;;;5083781;28;20195;-78
2021/04/14 11:14:53;;;;;;;9.63;5.50;;;14.70;98.40;;;;;;5087438;28;20654;-77
2021/04/14 11:17:21;;;;;;;7.93;5.43;;;15.00;98.40;;;;;;5079638;28;20281;-82
2021/04/14 11:19:57;;;;;;;10.63;5.67;;;14.90;98.20;;;;;;5089637;28;20202;-86
2021/04/14 11:22:24;;;;;;;8.80;5.43;;;14.80;98.50;;;;;;5085533;28;20195;-80
2021/04/14 11:24:53;;;;;;;8.80;5.60;;;15.30;97.40;;;;;;5079138;28;20275;-82
2021/04/14 11:27:23;;;;;;;7.03;5.40;;;15.50;97.70;;;;;;5091492;28;20205;-81
2021/04/14 11:29:52;;;;;;;8.03;5.27;;;15.20;97.60;;;;;;5089003;28;20199;-82
2021/04/14 11:32:21;;;;;;;7.83;5.23;;;15.00;97.40;;;;;;5088204;28;20193;-83
2021/04/14 11:34:56;;;;;;;7.60;5.20;;;14.40;98.00;;;;;;5084023;28;20249;-80
2021/04/14 11:37:30;;;;;;;8.60;5.50;;;14.40;98.60;;;;;;5088761;28;20206;-84
2021/04/14 11:39:59;;;;;;;8.87;5.30;;;14.30;97.80;;;;;;5092393;28;20243;-79
2021/04/14 11:42:27;;;;;;;8.60;5.40;;;14.20;99.30;;;;;;5091944;28;20671;-84
2021/04/14 11:44:56;;;;;;;8.33;5.00;;;14.70;99.40;;;;;;5092074;28;20314;-81
2021/04/14 11:47:27;;;;;;;10.23;6.17;;;15.10;98.20;;;;;;5089442;28;20574;-80
2021/04/14 11:49:54;;;;;;;7.07;5.50;;;16.10;97.70;;;;;;5091459;28;20207;-82
2021/04/14 11:52:24;;;;;;;7.93;5.10;;;17.10;96.30;;;;;;5090249;28;20206;-81
2021/04/14 11:54:52;;;;;;;6.90;5.40;;;17.60;96.50;;;;;;5091024;28;20222;-80
2021/04/14 11:57:31;;;;;;;7.53;5.60;;;18.10;95.60;;;;;;5090970;28;20218;-85
2021/04/14 12:00:15;;;;;;;7.97;5.60;;;18.40;95.10;;;;;;5088905;28;20226;-79
2021/04/14 12:02:43;;;;;;;9.43;5.67;;;18.30;95.80;;;;;;5090243;28;20283;-82
2021/04/14 12:05:13;;;;;;;8.80;6.13;;;18.30;95.10;;;;;;5091270;28;20222;-83
2021/04/14 12:07:40;;;;;;;12.30;5.73;;;18.20;94.60;;;;;;5089539;28;20202;-82
2021/04/14 12:10:07;;;;;;;8.27;6.10;;;17.90;94.90;;;;;;5091334;28;20201;-82
2021/04/14 12:12:34;;;;;;;7.20;5.93;;;17.00;94.70;;;;;;5089115;28;20234;-83
2021/04/14 12:15:01;;;;;;;8.83;6.10;;;15.20;96.20;;;;;;5090585;28;20684;-83
2021/04/14 12:17:28;;;;;;;8.93;5.97;;;14.70;97.00;;;;;;5091296;28;20656;-83
2021/04/14 12:19:55;;;;;;;7.63;5.70;;;14.60;96.90;;;;;;5090365;28;20663;-84
2021/04/14 12:22:21;;;;;;;10.50;5.80;;;14.20;97.80;;;;;;5090510;28;20655;-83
2021/04/14 12:24:48;;;;;;;7.20;5.53;;;13.90;97.80;;;;;;5090966;28;20290;-83
2021/04/14 12:27:14;;;;;;;8.77;5.80;;;13.70;98.80;;;;;;5091267;28;20301;-83
2021/04/14 12:29:41;;;;;;;9.40;5.80;;;13.40;98.30;;;;;;5091333;28;20287;-82
2021/04/14 12:32:08;;;;;;;7.53;5.10;;;13.30;99.70;;;;;;5091935;28;20238;-82
2021/04/14 12:34:35;;;;;;;12.10;5.67;;;13.50;98.80;;;;;;5091417;28;20230;-83
2021/04/14 12:37:02;;;;;;;8.53;6.10;;;13.80;99.10;;;;;;5091323;28;20309;-82
2021/04/14 12:39:29;;;;;;;9.27;5.63;;;13.10;98.10;;;;;;5090503;28;20683;-83
2021/04/14 12:41:55;;;;;;;7.60;6.03;;;12.90;99.00;;;;;;5091386;28;20217;-85
2021/04/14 12:44:22;;;;;;;10.73;5.90;;;12.60;98.80;;;;;;5087082;28;20723;-81
2021/04/14 12:46:51;;;;;;;10.40;6.53;;;12.60;99.60;;;;;;5089757;28;20240;-82
2021/04/14 12:49:21;;;;;;;8.93;6.60;;;12.10;99.90;;;;;;5085543;28;20558;-83
2021/04/14 12:51:50;;;;;;;8.93;6.27;;;11.90;99.90;;;;;;5089218;28;20338;-81
2021/04/14 12:54:28;;;;;;;14.00;6.53;;;11.50;99.90;;;;;;5087294;28;20284;-80
2021/04/14 12:56:58;;;;;;;9.07;6.40;;;11.40;99.90;;;;;;5094028;28;20194;-83
2021/04/14 12:59:29;;;;;;;12.23;6.57;;;11.10;99.90;;;;;;5092203;28;21280;-87
2021/04/14 13:02:03;;;;;;;9.57;6.43;;;11.00;99.90;;;;;;5095973;28;20196;-83
2021/04/14 13:04:46;;;;;;;11.40;6.80;;;11.00;99.90;;;;;;5092567;28;20197;-81
2021/04/14 13:07:17;;;;;;;13.90;6.20;;;11.20;99.90;;;;;;5088993;28;20562;-83
2021/04/14 13:09:44;;;;;;;10.63;6.63;;;11.40;99.90;;;;;;5092602;28;20288;-83